Terminal Aerodrome Forecast
Issued by NWS

Home | Current Version | Previous Version | Text Only | Print | Product List | Glossary On
Versions: 1 2 3 4 5 6 7 8 9 10 11 12 13
000
FTUS45 KRIW 230500
TAFJAC
TAF
KJAC 230536Z 2306/2406 VRB05KT P6SM VCSH SCT030 OVC045
     FM230900 VRB05KT 6SM -SHRA BR SCT015 BKN030
     FM231800 VRB10G15KT P6SM VCTS SCT030CB BKN060
     FM240200 VRB06KT P6SM VCSH SCT030 BKN050
      AMD LTD TO CLD VIS AND WIND=

USA.gov is the U.S. government's official web portal to all federal, state and local government web resources and services.